createdAt,value
2017-09-10T00:01:02.175Z,99956.55
2017-09-10T00:03:30.028Z,99954.02
2017-09-10T00:05:57.931Z,99958.41
2017-09-10T00:08:25.762Z,99963.67
2017-09-10T00:10:53.656Z,99965.78
2017-09-10T00:13:21.491Z,99971.05
2017-09-10T00:15:49.289Z,99978.94
2017-09-10T00:18:17.141Z,99981.53
2017-09-10T00:20:45.036Z,99980.61
2017-09-10T00:23:12.874Z,99981.00
2017-09-10T00:25:40.778Z,99978.80
2017-09-10T00:28:08.614Z,99976.53
2017-09-10T00:30:36.558Z,99980.02
2017-09-10T00:33:04.402Z,99979.21
2017-09-10T00:35:32.301Z,99975.43
2017-09-10T00:38:00.163Z,99978.93
2017-09-10T00:40:28.079Z,99975.56
2017-09-10T00:42:55.933Z,99976.91
2017-09-10T00:45:23.834Z,99978.69
2017-09-10T00:47:51.706Z,99982.14
2017-09-10T00:50:19.622Z,99984.70
2017-09-10T00:52:47.502Z,99984.66
2017-09-10T00:55:15.400Z,99990.38
2017-09-10T00:57:43.263Z,100001.52
2017-09-10T01:00:11.254Z,99999.78
2017-09-10T01:02:39.852Z,100010.09
2017-09-10T01:05:07.766Z,100013.44
2017-09-10T01:07:35.623Z,100017.71
2017-09-10T01:10:03.527Z,100018.72
2017-09-10T01:12:31.448Z,100011.61
2017-09-10T01:14:59.366Z,100007.94
2017-09-10T01:17:27.245Z,100005.20
2017-09-10T01:19:55.183Z,100003.94
2017-09-10T01:22:23.040Z,100016.22
2017-09-10T01:24:50.982Z,100013.05
2017-09-10T01:27:18.839Z,100013.80
2017-09-10T01:29:46.746Z,100014.99
2017-09-10T01:32:14.654Z,100019.81
2017-09-10T01:34:42.523Z,100015.96
2017-09-10T01:37:10.410Z,100018.84
2017-09-10T01:39:38.270Z,100025.04
2017-09-10T01:42:06.185Z,100020.81
2017-09-10T01:44:34.022Z,100024.03
2017-09-10T01:47:01.918Z,100029.12
2017-09-10T01:49:29.658Z,100027.19
2017-09-10T01:51:57.550Z,100026.27
2017-09-10T01:54:25.406Z,100021.70
2017-09-10T01:56:53.291Z,100020.66
2017-09-10T01:59:21.164Z,100018.20
2017-09-10T02:01:49.065Z,100029.29
2017-09-10T02:04:16.895Z,100033.85
2017-09-10T02:06:44.790Z,100036.02
2017-09-10T02:09:12.640Z,100028.34
2017-09-10T02:11:40.538Z,100026.45
2017-09-10T02:14:08.398Z,100030.14
2017-09-10T02:16:36.307Z,100023.11
2017-09-10T02:19:04.179Z,100038.14
2017-09-10T02:21:32.076Z,100035.14
2017-09-10T02:23:59.810Z,100046.80
2017-09-10T02:26:27.707Z,100041.98
2017-09-10T02:28:55.553Z,100043.63
2017-09-10T02:31:23.484Z,100053.27
2017-09-10T02:33:51.340Z,100047.38
2017-09-10T02:36:19.219Z,100049.52
2017-09-10T02:38:47.058Z,100053.11
2017-09-10T02:41:14.958Z,100059.31
2017-09-10T02:43:42.794Z,100060.06
2017-09-10T02:46:10.630Z,100056.03
2017-09-10T02:48:38.534Z,100064.14
2017-09-10T02:51:06.391Z,100062.34
2017-09-10T02:53:34.290Z,100064.63
2017-09-10T02:56:02.148Z,100057.11
2017-09-10T02:58:30.050Z,100056.28
2017-09-10T03:00:57.901Z,100053.02
2017-09-10T03:03:25.795Z,100064.27
2017-09-10T03:05:53.645Z,100062.05
2017-09-10T03:08:21.533Z,100064.31
2017-09-10T03:10:49.373Z,100055.97
2017-09-10T03:13:17.250Z,100052.78
2017-09-10T03:15:45.093Z,100053.03
2017-09-10T03:18:12.983Z,100051.95
2017-09-10T03:20:40.829Z,100052.56
2017-09-10T03:23:08.718Z,100058.05
2017-09-10T03:25:36.571Z,100059.16
2017-09-10T03:28:04.466Z,100061.37
2017-09-10T03:30:32.359Z,100071.68
2017-09-10T03:33:00.262Z,100074.30
2017-09-10T03:35:28.127Z,100070.86
2017-09-10T03:37:56.025Z,100074.65
2017-09-10T03:40:23.896Z,100080.03
2017-09-10T03:42:51.788Z,100076.93
2017-09-10T03:45:19.698Z,100077.66
2017-09-10T03:47:47.591Z,100081.92
2017-09-10T03:50:15.506Z,100080.29
2017-09-10T03:52:43.398Z,100084.09
2017-09-10T03:55:11.240Z,100088.02
2017-09-10T03:57:39.133Z,100087.63
2017-09-10T04:00:06.973Z,100085.34
2017-09-10T04:02:34.883Z,100090.91
2017-09-10T04:05:02.715Z,100096.14
2017-09-10T04:07:30.562Z,100094.92
2017-09-10T04:09:58.483Z,100092.08
2017-09-10T04:12:26.327Z,100109.64
2017-09-10T04:14:54.227Z,100109.31
2017-09-10T04:17:22.085Z,100108.67
2017-09-10T04:19:49.900Z,100110.22
2017-09-10T04:22:17.750Z,100102.80
2017-09-10T04:24:45.637Z,100108.02
2017-09-10T04:27:13.491Z,100110.78
2017-09-10T04:29:41.385Z,100105.48
2017-09-10T04:32:09.318Z,100108.18
2017-09-10T04:34:37.229Z,100115.61
2017-09-10T04:37:05.075Z,100122.47
2017-09-10T04:39:32.977Z,100126.91
2017-09-10T04:42:00.851Z,100132.20
2017-09-10T04:44:28.756Z,100125.56
2017-09-10T04:46:56.681Z,100134.16
2017-09-10T04:49:24.583Z,100127.52
2017-09-10T04:51:52.442Z,100149.52
2017-09-10T04:54:20.350Z,100137.73
2017-09-10T04:56:48.226Z,100146.06
2017-09-10T04:59:16.138Z,100142.50
2017-09-10T05:01:43.982Z,100147.12
2017-09-10T05:04:11.899Z,100142.23
2017-09-10T05:06:39.761Z,100144.60
2017-09-10T05:09:07.649Z,100142.80
2017-09-10T05:11:35.530Z,100142.49
2017-09-10T05:14:03.475Z,100154.04
2017-09-10T05:16:31.346Z,100154.36
2017-09-10T05:18:59.255Z,100149.15
2017-09-10T05:21:27.134Z,100152.34
2017-09-10T05:23:54.910Z,100155.18
2017-09-10T05:26:22.734Z,100148.55
2017-09-10T05:28:50.613Z,100158.74
2017-09-10T05:31:18.551Z,100158.53
2017-09-10T05:33:46.497Z,100151.92
2017-09-10T05:36:14.352Z,100153.42
2017-09-10T05:38:42.292Z,100160.36
2017-09-10T05:41:10.143Z,100160.47
2017-09-10T05:43:38.115Z,100164.49
2017-09-10T05:46:06.023Z,100167.88
2017-09-10T05:48:33.978Z,100178.43
2017-09-10T05:51:01.846Z,100177.80
2017-09-10T05:53:29.693Z,100182.09
2017-09-10T05:55:57.610Z,100187.47
2017-09-10T05:58:25.466Z,100194.59
2017-09-10T06:00:53.373Z,100195.22
2017-09-10T06:03:21.232Z,100197.38
2017-09-10T06:05:49.154Z,100193.08
2017-09-10T06:08:17.075Z,100193.81
2017-09-10T06:10:44.983Z,100197.26
2017-09-10T06:13:12.842Z,100203.20
2017-09-10T06:15:40.773Z,100198.37
2017-09-10T06:18:08.690Z,100203.37
2017-09-10T06:20:36.606Z,100201.95
2017-09-10T06:23:04.476Z,100194.22
2017-09-10T06:25:32.393Z,100194.70
2017-09-10T06:28:00.281Z,100192.72
2017-09-10T06:30:28.233Z,100189.97
2017-09-10T06:32:56.110Z,100197.97
2017-09-10T06:35:24.027Z,100206.42
2017-09-10T06:37:51.899Z,100200.70
2017-09-10T06:40:19.792Z,100198.77
2017-09-10T06:42:47.645Z,100201.20
2017-09-10T06:45:15.601Z,100199.53
2017-09-10T06:47:43.483Z,100198.74
2017-09-10T06:50:11.394Z,100199.84
2017-09-10T06:52:39.274Z,100207.13
2017-09-10T06:55:07.180Z,100211.07
2017-09-10T06:57:35.064Z,100212.16
2017-09-10T07:00:03.012Z,100209.19
2017-09-10T07:02:30.904Z,100213.68
2017-09-10T07:04:58.816Z,100204.59
2017-09-10T07:07:26.733Z,100211.98
2017-09-10T07:09:54.663Z,100215.48
2017-09-10T07:12:22.550Z,100218.22
2017-09-10T07:14:50.489Z,100218.67
2017-09-10T07:17:18.360Z,100222.30
2017-09-10T07:19:46.335Z,100219.45
2017-09-10T07:22:14.302Z,100218.23
2017-09-10T07:24:42.257Z,100210.91
2017-09-10T07:27:10.124Z,100217.60
2017-09-10T07:29:38.022Z,100223.55
2017-09-10T07:32:05.940Z,100217.77
2017-09-10T07:34:33.844Z,100218.06
2017-09-10T07:37:01.705Z,100218.19
2017-09-10T07:39:29.566Z,100234.45
2017-09-10T07:41:57.523Z,100235.14
2017-09-10T07:44:25.493Z,100240.98
2017-09-10T07:46:53.542Z,100245.19
2017-09-10T07:49:21.455Z,100235.40
2017-09-10T07:51:49.375Z,100234.84
2017-09-10T07:54:17.254Z,100232.63
2017-09-10T07:56:45.151Z,100240.27
2017-09-10T07:59:13.026Z,100238.70
2017-09-10T08:01:40.946Z,100238.35
2017-09-10T08:04:08.793Z,100246.34
2017-09-10T08:06:36.722Z,100242.78
2017-09-10T08:09:04.692Z,100244.06
2017-09-10T08:11:32.599Z,100240.42
2017-09-10T08:14:00.454Z,100239.97
2017-09-10T08:16:28.426Z,100239.28
2017-09-10T08:18:56.368Z,100249.53
2017-09-10T08:21:24.285Z,100252.86
2017-09-10T08:23:52.242Z,100248.49
2017-09-10T08:26:20.150Z,100252.08
2017-09-10T08:28:48.041Z,100247.48
2017-09-10T08:31:16.008Z,100254.75
2017-09-10T08:33:43.900Z,100250.81
2017-09-10T08:36:11.814Z,100248.73
2017-09-10T08:38:39.754Z,100249.22
2017-09-10T08:41:07.702Z,100247.20
2017-09-10T08:43:35.556Z,100242.55
2017-09-10T08:46:03.538Z,100248.05
2017-09-10T08:48:31.417Z,100241.36
2017-09-10T08:50:59.341Z,100243.99
2017-09-10T08:53:27.250Z,100242.64
2017-09-10T08:55:55.995Z,100248.50
2017-09-10T08:58:23.829Z,100242.84
2017-09-10T09:00:51.732Z,100251.51
2017-09-10T09:03:19.582Z,100247.09
2017-09-10T09:05:47.519Z,100242.00
2017-09-10T09:08:15.407Z,100246.83
2017-09-10T09:10:43.305Z,100232.89
2017-09-10T09:13:11.225Z,100229.03
2017-09-10T09:15:39.226Z,100229.58
2017-09-10T09:18:07.089Z,100229.14
2017-09-10T09:20:35.034Z,100225.87
2017-09-10T09:23:02.915Z,100228.23
2017-09-10T09:25:30.799Z,100224.92
2017-09-10T09:27:58.744Z,100225.41
2017-09-10T09:30:26.624Z,100227.11
2017-09-10T09:32:54.594Z,100224.16
2017-09-10T09:35:22.474Z,100231.61
2017-09-10T09:37:50.402Z,100232.12
2017-09-10T09:40:18.257Z,100226.61
2017-09-10T09:42:46.187Z,100227.84
2017-09-10T09:45:14.052Z,100224.83
2017-09-10T09:47:42.011Z,100221.58
2017-09-10T09:50:09.977Z,100225.08
2017-09-10T09:52:37.951Z,100232.63
2017-09-10T09:55:05.818Z,100225.94
2017-09-10T09:57:33.753Z,100220.70
2017-09-10T10:00:01.618Z,100223.41
2017-09-10T10:02:29.568Z,100221.47
2017-09-10T10:04:57.415Z,100227.06
2017-09-10T10:07:25.335Z,100225.33
2017-09-10T10:09:53.199Z,100229.80
2017-09-10T10:12:21.151Z,100233.15
2017-09-10T10:14:49.072Z,100227.64
2017-09-10T10:17:17.002Z,100235.12
2017-09-10T10:19:44.874Z,100222.18
2017-09-10T10:22:12.795Z,100227.46
2017-09-10T10:24:40.680Z,100222.53
2017-09-10T10:27:08.591Z,100225.23
2017-09-10T10:29:36.465Z,100229.00
2017-09-10T10:32:04.407Z,100222.62
2017-09-10T10:34:32.270Z,100222.11
2017-09-10T10:37:00.170Z,100227.13
2017-09-10T10:39:28.059Z,100226.34
2017-09-10T10:41:55.979Z,100226.97
2017-09-10T10:44:23.902Z,100230.84
2017-09-10T10:46:51.838Z,100227.95
2017-09-10T10:49:19.619Z,100238.13
2017-09-10T10:51:47.528Z,100222.89
2017-09-10T10:54:15.411Z,100226.13
2017-09-10T10:56:43.326Z,100227.25
2017-09-10T10:59:11.183Z,100225.77
2017-09-10T11:01:39.090Z,100210.54
2017-09-10T11:04:06.972Z,100214.78
2017-09-10T11:06:34.953Z,100212.52
2017-09-10T11:09:02.841Z,100210.51
2017-09-10T11:11:30.686Z,100207.14
2017-09-10T11:13:58.607Z,100213.86
2017-09-10T11:16:26.491Z,100212.02
2017-09-10T11:18:54.439Z,100209.28
2017-09-10T11:21:22.335Z,100204.88
2017-09-10T11:23:50.283Z,100206.87
2017-09-10T11:26:18.144Z,100210.19
2017-09-10T11:28:46.071Z,100199.08
2017-09-10T11:31:14.006Z,100207.30
2017-09-10T11:33:41.917Z,100196.43
2017-09-10T11:36:10.076Z,100189.64
2017-09-10T11:38:37.985Z,100190.23
2017-09-10T11:41:05.862Z,100194.83
2017-09-10T11:43:33.820Z,100189.22
2017-09-10T11:46:01.697Z,100184.02
2017-09-10T11:48:29.654Z,100183.73
2017-09-10T11:50:57.568Z,100185.22
2017-09-10T11:53:25.525Z,100185.28
2017-09-10T11:55:53.380Z,100183.71
2017-09-10T11:58:21.272Z,100178.88
2017-09-10T12:00:49.113Z,100183.91
2017-09-10T12:03:17.088Z,100180.44
2017-09-10T12:05:45.008Z,100176.61
2017-09-10T12:08:12.914Z,100178.42
2017-09-10T12:10:40.808Z,100181.69
2017-09-10T12:13:08.735Z,100180.44
2017-09-10T12:15:36.597Z,100174.22
2017-09-10T12:18:04.440Z,100175.00
2017-09-10T12:20:32.311Z,100176.11
2017-09-10T12:23:00.232Z,100175.58
2017-09-10T12:25:28.101Z,100174.82
2017-09-10T12:27:55.997Z,100172.36
2017-09-10T12:30:23.912Z,100164.27
2017-09-10T12:32:51.891Z,100174.84
2017-09-10T12:35:19.767Z,100170.62
2017-09-10T12:37:47.579Z,100168.84
2017-09-10T12:40:15.430Z,100177.72
2017-09-10T12:42:43.331Z,100172.27
2017-09-10T12:45:11.217Z,100171.07
2017-09-10T12:47:39.148Z,100166.20
2017-09-10T12:50:07.071Z,100163.31
2017-09-10T12:52:35.013Z,100156.70
2017-09-10T12:55:02.890Z,100168.50
2017-09-10T12:57:30.775Z,100167.22
2017-09-10T12:59:58.773Z,100162.75
2017-09-10T13:02:26.651Z,100162.09
2017-09-10T13:04:54.591Z,100158.38
2017-09-10T13:07:22.443Z,100164.73
2017-09-10T13:09:50.373Z,100162.78
2017-09-10T13:12:18.222Z,100154.97
2017-09-10T13:14:46.193Z,100148.19
2017-09-10T13:17:14.048Z,100146.22
2017-09-10T13:19:41.929Z,100153.22
2017-09-10T13:22:09.771Z,100153.14
2017-09-10T13:24:37.700Z,100150.03
2017-09-10T13:27:05.565Z,100149.63
2017-09-10T13:29:33.525Z,100148.63
2017-09-10T13:32:01.426Z,100151.86
2017-09-10T13:34:29.366Z,100145.39
2017-09-10T13:36:57.212Z,100140.61
2017-09-10T13:39:25.129Z,100130.42
2017-09-10T13:41:53.077Z,100129.93
2017-09-10T13:44:21.082Z,100126.53
2017-09-10T13:46:48.956Z,100124.30
2017-09-10T13:49:16.884Z,100120.86
2017-09-10T13:51:44.798Z,100114.59
2017-09-10T13:54:12.797Z,100113.12
2017-09-10T13:56:40.745Z,100104.94
2017-09-10T13:59:08.655Z,100105.41
2017-09-10T14:01:36.515Z,100103.84
2017-09-10T14:04:04.401Z,100113.66
2017-09-10T14:06:32.340Z,100093.07
2017-09-10T14:09:00.298Z,100096.33
2017-09-10T14:11:28.242Z,100092.43
2017-09-10T14:13:56.104Z,100097.47
2017-09-10T14:16:24.034Z,100100.22
2017-09-10T14:18:51.825Z,100104.27
2017-09-10T14:21:19.822Z,100103.83
2017-09-10T14:23:47.682Z,100108.67
2017-09-10T14:26:15.591Z,100106.20
2017-09-10T14:28:43.479Z,100101.30
2017-09-10T14:31:11.430Z,100100.67
2017-09-10T14:33:39.358Z,100097.77
2017-09-10T14:36:07.287Z,100095.44
2017-09-10T14:38:35.175Z,100101.07
2017-09-10T14:41:03.114Z,100101.39
2017-09-10T14:43:31.035Z,100101.17
2017-09-10T14:45:58.950Z,100091.35
2017-09-10T14:48:26.855Z,100097.05
2017-09-10T14:50:54.788Z,100099.91
2017-09-10T14:53:22.666Z,100105.55
2017-09-10T14:55:50.610Z,100111.79
2017-09-10T14:58:18.428Z,100108.02
2017-09-10T15:00:46.388Z,100114.50
2017-09-10T15:03:14.296Z,100112.72
2017-09-10T15:05:42.227Z,100108.92
2017-09-10T15:08:10.066Z,100112.09
2017-09-10T15:10:37.986Z,100108.02
2017-09-10T15:13:05.867Z,100113.48
2017-09-10T15:15:33.822Z,100114.45
2017-09-10T15:18:01.684Z,100108.17
2017-09-10T15:20:29.603Z,100106.51
2017-09-10T15:22:57.470Z,100104.80
2017-09-10T15:25:25.445Z,100104.81
2017-09-10T15:27:53.287Z,100117.21
2017-09-10T15:30:21.253Z,100117.25
2017-09-10T15:32:49.214Z,100123.91
2017-09-10T15:35:17.156Z,100124.55
2017-09-10T15:37:45.020Z,100117.77
2017-09-10T15:40:12.924Z,100112.61
2017-09-10T15:42:40.794Z,100110.82
2017-09-10T15:45:08.750Z,100110.95
2017-09-10T15:47:36.679Z,100125.75
2017-09-10T15:50:04.562Z,100111.08
2017-09-10T15:52:32.463Z,100104.59
2017-09-10T15:55:00.416Z,100105.22
2017-09-10T15:57:28.394Z,100103.91
2017-09-10T15:59:56.314Z,100110.84
2017-09-10T16:02:24.263Z,100114.94
2017-09-10T16:04:52.101Z,100113.16
2017-09-10T16:07:20.021Z,100108.57
2017-09-10T16:09:47.886Z,100105.19
2017-09-10T16:12:16.007Z,100105.37
2017-09-10T16:14:43.866Z,100107.75
2017-09-10T16:17:11.796Z,100107.59
2017-09-10T16:19:39.632Z,100107.23
2017-09-10T16:22:07.549Z,100101.99
2017-09-10T16:24:35.506Z,100102.75
2017-09-10T16:27:03.469Z,100106.62
2017-09-10T16:29:31.352Z,100101.09
2017-09-10T16:31:59.283Z,100094.96
2017-09-10T16:34:27.198Z,100087.48
2017-09-10T16:36:55.145Z,100092.67
2017-09-10T16:39:23.018Z,100085.81
2017-09-10T16:41:50.974Z,100093.56
2017-09-10T16:44:18.915Z,100087.08
2017-09-10T16:46:46.827Z,100086.63
2017-09-10T16:49:14.736Z,100084.98
2017-09-10T16:51:42.668Z,100089.89
2017-09-10T16:54:10.506Z,100091.35
2017-09-10T16:56:38.482Z,100090.79
2017-09-10T16:59:06.410Z,100083.19
2017-09-10T17:01:34.368Z,100080.18
2017-09-10T17:04:03.201Z,100075.33
2017-09-10T17:06:31.149Z,100069.84
2017-09-10T17:08:59.045Z,100073.33
2017-09-10T17:11:26.951Z,100073.14
2017-09-10T17:13:54.818Z,100071.88
2017-09-10T17:16:22.720Z,100072.77
2017-09-10T17:18:50.588Z,100070.05
2017-09-10T17:21:18.503Z,100060.09
2017-09-10T17:23:46.377Z,100068.41
2017-09-10T17:26:14.204Z,100070.75
2017-09-10T17:28:42.049Z,100063.49
2017-09-10T17:31:09.987Z,100069.54
2017-09-10T17:33:37.853Z,100074.15
2017-09-10T17:36:05.762Z,100072.94
2017-09-10T17:38:33.619Z,100072.38
2017-09-10T17:41:01.455Z,100065.61
2017-09-10T17:43:29.367Z,100060.92
2017-09-10T17:45:57.222Z,100061.61
2017-09-10T17:48:25.203Z,100065.69
2017-09-10T17:50:53.129Z,100059.64
2017-09-10T17:53:21.087Z,100067.72
2017-09-10T17:55:49.019Z,100070.66
2017-09-10T17:58:16.922Z,100075.75
2017-09-10T18:00:44.832Z,100069.33
2017-09-10T18:03:12.754Z,100072.75
2017-09-10T18:05:40.624Z,100071.00
2017-09-10T18:08:08.533Z,100066.80
2017-09-10T18:10:36.419Z,100067.34
2017-09-10T18:13:04.379Z,100068.67
2017-09-10T18:15:32.263Z,100062.02
2017-09-10T18:18:00.196Z,100062.62
2017-09-10T18:20:28.126Z,100060.51
2017-09-10T18:22:56.033Z,100063.20
2017-09-10T18:25:23.892Z,100067.95
2017-09-10T18:27:51.837Z,100071.13
2017-09-10T18:30:19.744Z,100064.82
2017-09-10T18:32:47.699Z,100067.27
2017-09-10T18:35:15.548Z,100061.73
2017-09-10T18:37:43.474Z,100059.34
2017-09-10T18:40:11.331Z,100061.73
2017-09-10T18:42:39.281Z,100059.95
2017-09-10T18:45:07.152Z,100063.22
2017-09-10T18:47:35.126Z,100057.95
2017-09-10T18:50:03.049Z,100054.80
2017-09-10T18:52:31.000Z,100059.63
2017-09-10T18:54:58.903Z,100051.16
2017-09-10T18:57:26.920Z,100050.22
2017-09-10T18:59:54.731Z,100057.93
2017-09-10T19:02:22.674Z,100061.59
2017-09-10T19:04:50.594Z,100063.17
2017-09-10T19:07:18.506Z,100063.47
2017-09-10T19:09:46.271Z,100061.09
2017-09-10T19:12:14.080Z,100059.36
2017-09-10T19:14:41.931Z,100057.14
2017-09-10T19:17:09.821Z,100056.48
2017-09-10T19:19:37.741Z,100068.53
2017-09-10T19:22:05.607Z,100065.61
2017-09-10T19:24:33.552Z,100063.14
2017-09-10T19:27:01.440Z,100059.80
2017-09-10T19:29:29.363Z,100058.39
2017-09-10T19:31:57.286Z,100051.84
2017-09-10T19:34:25.233Z,100044.60
2017-09-10T19:36:53.089Z,100041.59
2017-09-10T19:39:21.036Z,100036.86
2017-09-10T19:41:48.882Z,100035.29
2017-09-10T19:44:16.807Z,100026.65
2017-09-10T19:46:44.722Z,100018.09
2017-09-10T19:49:12.700Z,100008.56
2017-09-10T19:51:40.577Z,100017.75
2017-09-10T19:54:08.491Z,100014.95
2017-09-10T19:56:36.356Z,100013.92
2017-09-10T19:59:04.258Z,100016.58
2017-09-10T20:01:32.129Z,100015.56
2017-09-10T20:04:00.060Z,100015.89
2017-09-10T20:06:27.923Z,100009.77
2017-09-10T20:08:55.851Z,100003.55
2017-09-10T20:11:23.739Z,100002.33
2017-09-10T20:13:51.640Z,100002.33
2017-09-10T20:16:19.492Z,100002.16
2017-09-10T20:18:47.392Z,99997.03
2017-09-10T20:21:15.319Z,99987.61
2017-09-10T20:23:43.257Z,99996.95
2017-09-10T20:26:11.119Z,99999.59
2017-09-10T20:28:39.036Z,99995.73
2017-09-10T20:31:06.956Z,99986.97
2017-09-10T20:33:34.863Z,99986.66
2017-09-10T20:36:02.716Z,99979.91
2017-09-10T20:38:30.664Z,99991.39
2017-09-10T20:40:58.546Z,99982.27
2017-09-10T20:43:26.443Z,99985.02
2017-09-10T20:45:54.322Z,99988.89
2017-09-10T20:48:22.240Z,99982.44
2017-09-10T20:50:50.169Z,99980.05
2017-09-10T20:53:18.038Z,99968.05
2017-09-10T20:55:45.930Z,99972.20
2017-09-10T20:58:13.806Z,99961.97
2017-09-10T21:00:42.174Z,99962.75
2017-09-10T21:03:10.015Z,99965.46
2017-09-10T21:05:37.934Z,99961.34
2017-09-10T21:08:05.779Z,99959.83
2017-09-10T21:10:33.675Z,99959.46
2017-09-10T21:13:01.589Z,99954.70
2017-09-10T21:15:29.500Z,99956.80
2017-09-10T21:17:57.370Z,99954.89
2017-09-10T21:20:25.300Z,99949.30
2017-09-10T21:22:53.183Z,99953.38
2017-09-10T21:25:21.064Z,99945.70
2017-09-10T21:27:48.938Z,99931.92
2017-09-10T21:30:16.850Z,99942.86
2017-09-10T21:32:44.804Z,99933.61
2017-09-10T21:35:12.734Z,99931.34
2017-09-10T21:37:40.490Z,99924.12
2017-09-10T21:40:08.382Z,99925.39
2017-09-10T21:42:36.258Z,99929.88
2017-09-10T21:45:04.192Z,99929.83
2017-09-10T21:47:32.023Z,99926.05
2017-09-10T21:49:59.975Z,99923.63
2017-09-10T21:52:27.819Z,99925.96
2017-09-10T21:54:55.752Z,99923.16
2017-09-10T21:57:23.619Z,99914.78
2017-09-10T21:59:51.515Z,99908.33
2017-09-10T22:02:19.364Z,99910.14
2017-09-10T22:04:47.341Z,99917.82
2017-09-10T22:07:15.240Z,99922.38
2017-09-10T22:09:43.122Z,99912.67
2017-09-10T22:12:10.968Z,99913.61
2017-09-10T22:14:38.838Z,99916.11
2017-09-10T22:17:06.669Z,99921.62
2017-09-10T22:19:34.568Z,99919.97
2017-09-10T22:22:02.424Z,99919.56
2017-09-10T22:24:30.310Z,99920.30
2017-09-10T22:26:58.159Z,99918.38
2017-09-10T22:29:26.043Z,99913.20
2017-09-10T22:31:53.945Z,99915.13
2017-09-10T22:34:21.821Z,99914.64
2017-09-10T22:36:49.663Z,99913.75
2017-09-10T22:39:17.490Z,99912.77
2017-09-10T22:41:45.396Z,99899.38
2017-09-10T22:44:13.243Z,99903.45
2017-09-10T22:46:41.169Z,99889.48
2017-09-10T22:49:09.062Z,99898.92
2017-09-10T22:51:36.982Z,99887.91
2017-09-10T22:54:04.815Z,99882.98
2017-09-10T22:56:32.722Z,99885.00
2017-09-10T22:59:00.554Z,99879.46
2017-09-10T23:01:28.431Z,99883.84
2017-09-10T23:03:56.274Z,99889.44
2017-09-10T23:06:24.150Z,99872.48
2017-09-10T23:08:52.015Z,99869.52
2017-09-10T23:11:19.902Z,99859.08
2017-09-10T23:13:47.735Z,99862.73
2017-09-10T23:16:15.611Z,99865.94
2017-09-10T23:18:43.440Z,99851.84
2017-09-10T23:21:11.333Z,99844.94
2017-09-10T23:23:39.145Z,99844.11
2017-09-10T23:26:07.003Z,99837.03
2017-09-10T23:28:34.834Z,99837.15
2017-09-10T23:31:02.786Z,99833.00
2017-09-10T23:33:30.633Z,99832.22
2017-09-10T23:35:58.511Z,99824.72
2017-09-10T23:38:26.331Z,99827.56
2017-09-10T23:40:54.232Z,99824.97
2017-09-10T23:43:22.074Z,99832.61
2017-09-10T23:45:49.964Z,99822.66
2017-09-10T23:48:17.817Z,99811.69
2017-09-10T23:50:45.723Z,99811.06
2017-09-10T23:53:13.575Z,99812.36
2017-09-10T23:55:41.454Z,99805.80
2017-09-10T23:58:09.296Z,99809.66
